Time;durP1;ratioP1;P1;durP2;ratioP2;P2;SDS_P1;SDS_P2;PMS_P1;PMS_P2;Temp;Humidity;BMP_temperature;BMP_pressure;BME280_temperature;BME280_humidity;BME280_pressure;Samples;Min_cycle;Max_cycle;Signal;HPM_P1;HPM_P2
2022/07/12 00:01:06;;;;;;;5.40;1.67;;;27.80;1.00;;;;;;5154593;27;20158;-46
2022/07/12 00:03:33;;;;;;;3.75;2.22;;;27.70;1.00;;;;;;5146284;27;20479;-48
2022/07/12 00:05:59;;;;;;;3.67;2.10;;;27.90;1.00;;;;;;5154780;27;20049;-50
2022/07/12 00:08:25;;;;;;;5.88;1.70;;;27.90;1.00;;;;;;5144658;27;20034;-47
2022/07/12 00:10:50;;;;;;;5.22;1.60;;;28.00;1.00;;;;;;5153388;27;20102;-48
2022/07/12 00:13:16;;;;;;;4.60;1.73;;;27.90;1.00;;;;;;5151070;27;20033;-47
2022/07/12 00:15:43;;;;;;;4.93;1.50;;;28.00;1.00;;;;;;5139821;27;20031;-45
2022/07/12 00:18:10;;;;;;;3.47;1.30;;;28.00;1.00;;;;;;5153537;27;20409;-45
2022/07/12 00:20:37;;;;;;;5.57;1.77;;;27.50;1.00;;;;;;5154290;27;20026;-46
2022/07/12 00:23:03;;;;;;;4.45;1.65;;;27.60;1.00;;;;;;5153432;27;20058;-47
2022/07/12 00:25:29;;;;;;;3.45;1.73;;;27.50;1.00;;;;;;5153787;27;20403;-45
2022/07/12 00:27:55;;;;;;;4.30;1.70;;;27.90;1.00;;;;;;5153538;27;20023;-46
2022/07/12 00:30:21;;;;;;;4.90;2.05;;;27.80;1.00;;;;;;5139351;27;20031;-46
2022/07/12 00:32:48;;;;;;;3.72;1.27;;;27.40;1.00;;;;;;5153002;27;20476;-49
2022/07/12 00:35:14;;;;;;;3.42;1.65;;;27.30;1.00;;;;;;5153157;27;20033;-45
2022/07/12 00:45:27;;;;;;;4.32;2.13;;;27.10;1.00;;;;;;5143189;27;20030;-47
2022/07/12 00:47:53;;;;;;;4.57;1.52;;;27.20;1.00;;;;;;5140926;27;20053;-48
2022/07/12 00:50:22;;;;;;;3.72;1.70;;;27.10;1.00;;;;;;5152842;27;20050;-52
2022/07/12 00:52:52;;;;;;;4.03;1.60;;;27.10;1.00;;;;;;5139310;27;20091;-50
2022/07/12 00:55:19;;;;;;;6.60;1.35;;;27.10;1.00;;;;;;5150346;27;20103;-47
2022/07/12 00:57:45;;;;;;;2.60;1.40;;;27.00;1.00;;;;;;5132785;27;20463;-45
2022/07/12 01:00:16;;;;;;;4.80;1.40;;;26.80;1.00;;;;;;5142766;27;20038;-47
2022/07/12 01:02:44;;;;;;;4.45;1.42;;;26.90;1.00;;;;;;5151976;27;20555;-47
2022/07/12 01:05:09;;;;;;;6.63;1.63;;;26.90;1.00;;;;;;5146577;27;20042;-47
2022/07/12 01:07:36;;;;;;;2.95;1.40;;;27.20;1.00;;;;;;5142489;27;20104;-47
2022/07/12 01:10:05;;;;;;;3.30;1.33;;;27.20;1.00;;;;;;5143261;27;20564;-49
2022/07/12 01:12:31;;;;;;;3.45;1.50;;;27.30;1.00;;;;;;5144037;27;20381;-46
2022/07/12 01:14:57;;;;;;;4.68;1.67;;;27.30;1.00;;;;;;5141981;27;20119;-47
2022/07/12 01:17:24;;;;;;;2.38;1.23;;;27.20;1.00;;;;;;5148435;27;20464;-46
2022/07/12 01:19:52;;;;;;;3.80;1.70;;;27.20;1.00;;;;;;5143895;27;20020;-47
2022/07/12 01:22:18;;;;;;;5.20;1.60;;;27.10;1.00;;;;;;5135564;27;20023;-46
2022/07/12 01:24:45;;;;;;;3.15;1.40;;;27.20;1.00;;;;;;5144052;27;20042;-49
2022/07/12 01:27:11;;;;;;;3.38;1.55;;;27.20;1.00;;;;;;5137562;27;20035;-48
2022/07/12 01:29:37;;;;;;;3.17;1.67;;;27.10;1.00;;;;;;5152200;27;20049;-46
2022/07/12 01:34:51;;;;;;;2.65;1.20;;;27.10;1.00;;;;;;5147588;27;20045;-47
2022/07/12 01:37:18;;;;;;;2.22;1.38;;;27.10;1.00;;;;;;5142891;27;20129;-47
2022/07/12 01:39:44;;;;;;;1.35;1.10;;;26.80;1.00;;;;;;5135236;27;20548;-46
2022/07/12 01:42:10;;;;;;;2.65;1.40;;;26.80;1.00;;;;;;5138493;27;20113;-46
2022/07/12 01:44:36;;;;;;;4.90;1.40;;;26.70;1.00;;;;;;5138681;27;20051;-46
2022/07/12 01:47:02;;;;;;;4.05;1.40;;;26.60;1.00;;;;;;5137125;27;20023;-46
2022/07/12 01:49:28;;;;;;;1.30;1.20;;;26.50;1.00;;;;;;5139624;27;20038;-48
2022/07/12 01:51:58;;;;;;;3.42;1.38;;;26.70;1.00;;;;;;5149658;27;20098;-47
2022/07/12 01:54:25;;;;;;;2.63;1.55;;;26.70;1.00;;;;;;5150816;27;20028;-47
2022/07/12 01:56:54;;;;;;;3.50;1.17;;;26.80;1.00;;;;;;5152580;27;20081;-46
2022/07/12 01:59:20;;;;;;;6.68;2.03;;;26.70;1.00;;;;;;5151853;27;20071;-45
2022/07/12 02:33:16;;;;;;;3.08;1.65;;;26.30;1.00;;;;;;5138794;27;20046;-48
2022/07/12 02:35:44;;;;;;;3.53;1.45;;;26.20;1.00;;;;;;5151228;27;20041;-49
2022/07/12 02:38:10;;;;;;;1.63;1.52;;;26.20;1.00;;;;;;5151561;27;20027;-51
2022/07/12 02:40:53;;;;;;;2.08;1.52;;;26.20;1.00;;;;;;5152399;27;20441;-50
2022/07/12 02:43:24;;;;;;;2.92;1.40;;;26.30;1.00;;;;;;5141220;27;20014;-51
2022/07/12 02:45:51;;;;;;;3.72;1.67;;;26.10;1.00;;;;;;5156312;27;20038;-48
2022/07/12 02:48:16;;;;;;;2.58;1.40;;;26.10;1.00;;;;;;5154682;27;20023;-51
2022/07/12 02:50:42;;;;;;;2.63;1.27;;;26.00;1.00;;;;;;5155713;27;20528;-51
2022/07/12 02:53:09;;;;;;;2.75;1.50;;;26.30;1.00;;;;;;5154825;27;20075;-47
2022/07/12 02:55:35;;;;;;;2.45;1.50;;;26.50;1.00;;;;;;5155548;27;20049;-48
2022/07/12 02:58:01;;;;;;;3.25;1.20;;;26.40;1.00;;;;;;5153296;27;20027;-47
2022/07/12 03:00:27;;;;;;;2.58;1.17;;;26.40;1.00;;;;;;5155869;27;20464;-45
2022/07/12 03:02:53;;;;;;;2.60;1.60;;;26.50;1.00;;;;;;5154933;27;20431;-49
2022/07/12 03:05:19;;;;;;;1.25;1.15;;;26.50;1.00;;;;;;5156001;27;20057;-47
2022/07/12 03:07:44;;;;;;;2.05;1.45;;;26.60;1.00;;;;;;5154850;27;20034;-46
2022/07/12 03:10:10;;;;;;;2.45;1.10;;;26.40;1.00;;;;;;5151871;27;20062;-47
2022/07/12 03:12:36;;;;;;;3.78;1.55;;;26.50;1.00;;;;;;5154682;27;20104;-47
2022/07/12 03:15:03;;;;;;;1.00;1.00;;;26.40;1.00;;;;;;5155734;27;20026;-48
2022/07/12 03:17:29;;;;;;;2.60;1.45;;;26.30;1.00;;;;;;5154071;27;20031;-46
2022/07/12 03:19:54;;;;;;;2.53;1.52;;;26.40;1.00;;;;;;5155285;27;20027;-50
2022/07/12 03:22:20;;;;;;;0.90;0.90;;;26.40;1.00;;;;;;5154261;27;20052;-51
2022/07/12 03:24:46;;;;;;;2.78;0.93;;;26.40;1.00;;;;;;5154747;27;20059;-50
2022/07/12 03:27:11;;;;;;;3.15;1.40;;;26.40;1.00;;;;;;5153415;27;20483;-51
2022/07/12 03:29:39;;;;;;;1.05;1.05;;;26.40;1.00;;;;;;5155201;27;20083;-48
2022/07/12 03:32:06;;;;;;;2.42;1.60;;;26.50;1.00;;;;;;5154508;27;20018;-50
2022/07/12 03:34:32;;;;;;;2.15;1.35;;;26.40;1.00;;;;;;5154670;27;20361;-52
2022/07/12 03:37:10;;;;;;;3.63;1.40;;;26.40;1.00;;;;;;5153961;27;20574;-50
2022/07/12 03:39:35;;;;;;;2.65;1.60;;;26.30;1.00;;;;;;5155041;27;20055;-52
2022/07/12 03:42:01;;;;;;;3.17;1.10;;;26.40;1.00;;;;;;5153924;27;20469;-51
2022/07/12 03:44:29;;;;;;;1.77;1.20;;;26.40;1.00;;;;;;5154570;27;20058;-52
2022/07/12 03:46:54;;;;;;;2.63;1.10;;;26.40;1.00;;;;;;5154138;27;20103;-46
2022/07/12 03:49:20;;;;;;;2.60;1.40;;;26.40;1.00;;;;;;5155117;27;20420;-49
2022/07/12 03:51:45;;;;;;;1.80;1.30;;;26.10;1.00;;;;;;5153887;27;20019;-47
2022/07/12 03:54:11;;;;;;;1.45;1.10;;;26.00;1.00;;;;;;5147952;27;20022;-47
2022/07/12 03:59:22;;;;;;;3.22;1.20;;;25.90;1.00;;;;;;5153592;27;20130;-46
2022/07/12 04:01:48;;;;;;;4.32;1.40;;;26.00;1.00;;;;;;5153454;27;20508;-45
2022/07/12 04:04:14;;;;;;;3.20;1.42;;;26.00;1.00;;;;;;5148766;27;20053;-46
2022/07/12 04:06:39;;;;;;;2.97;1.38;;;26.00;1.00;;;;;;5153753;27;20050;-48
2022/07/12 04:09:06;;;;;;;3.35;1.20;;;26.00;1.00;;;;;;5151124;27;20049;-45
2022/07/12 04:11:32;;;;;;;1.33;1.10;;;26.10;1.00;;;;;;5151871;27;20045;-48
2022/07/12 04:13:58;;;;;;;4.45;1.48;;;25.90;1.00;;;;;;5148789;27;20034;-46
2022/07/12 04:16:24;;;;;;;3.05;1.50;;;26.20;1.00;;;;;;5153360;27;20424;-46
2022/07/12 04:18:49;;;;;;;2.75;1.50;;;26.00;1.00;;;;;;5139216;27;20031;-45
2022/07/12 04:21:15;;;;;;;4.85;2.13;;;26.00;1.00;;;;;;5140016;27;20031;-47
2022/07/12 04:23:41;;;;;;;3.85;1.40;;;26.10;1.00;;;;;;5145501;27;20393;-49
2022/07/12 04:26:06;;;;;;;2.30;1.40;;;26.20;1.00;;;;;;5148548;27;20514;-46
2022/07/12 04:28:32;;;;;;;3.55;1.90;;;26.30;1.00;;;;;;5144357;27;20026;-48
2022/07/12 04:30:57;;;;;;;2.72;1.48;;;26.30;1.00;;;;;;5140007;27;20468;-50
2022/07/12 04:33:23;;;;;;;3.13;1.95;;;26.30;1.00;;;;;;5153471;27;20047;-50
2022/07/12 04:35:49;;;;;;;2.78;1.65;;;26.30;1.00;;;;;;5152010;27;20138;-45
2022/07/12 04:38:14;;;;;;;5.10;1.73;;;26.20;1.00;;;;;;5141436;27;20461;-48
2022/07/12 04:40:40;;;;;;;4.53;1.80;;;26.20;1.00;;;;;;5135108;27;20023;-47
2022/07/12 04:43:05;;;;;;;3.97;1.52;;;26.20;1.00;;;;;;5139219;27;20021;-45
2022/07/12 04:45:31;;;;;;;3.15;1.40;;;26.30;1.00;;;;;;5133718;27;20428;-49
2022/07/12 04:47:57;;;;;;;5.40;1.58;;;26.30;1.00;;;;;;5146459;27;20102;-49
2022/07/12 04:50:23;;;;;;;2.83;1.52;;;26.30;1.00;;;;;;5140152;27;20119;-45
2022/07/12 04:52:48;;;;;;;6.53;1.30;;;26.20;1.00;;;;;;5136490;27;20026;-47
2022/07/12 04:55:14;;;;;;;1.95;1.33;;;26.30;1.00;;;;;;5140982;27;20027;-46
2022/07/12 04:57:39;;;;;;;2.92;1.40;;;26.30;1.00;;;;;;5150789;27;20042;-46
2022/07/12 05:00:06;;;;;;;2.75;1.20;;;26.20;1.00;;;;;;5151054;27;20042;-50
2022/07/12 05:02:32;;;;;;;2.38;1.33;;;26.30;1.00;;;;;;5149877;27;20027;-44
2022/07/12 05:04:58;;;;;;;1.65;1.30;;;26.30;1.00;;;;;;5146260;27;20392;-45
2022/07/12 05:07:24;;;;;;;3.42;1.80;;;26.30;1.00;;;;;;5146523;27;20022;-44
2022/07/12 05:09:51;;;;;;;4.38;1.65;;;26.40;1.00;;;;;;5152102;27;20038;-45
2022/07/12 05:12:18;;;;;;;1.70;1.33;;;26.40;1.00;;;;;;5153905;27;20085;-46
2022/07/12 05:14:44;;;;;;;3.13;1.63;;;26.40;1.00;;;;;;5153082;27;20384;-45
2022/07/12 05:17:10;;;;;;;3.47;1.63;;;26.30;1.00;;;;;;5153809;27;20035;-45
2022/07/12 05:19:37;;;;;;;3.78;1.40;;;26.20;1.00;;;;;;5149101;27;20391;-45
2022/07/12 05:22:03;;;;;;;4.35;1.60;;;26.30;1.00;;;;;;5146469;27;20022;-46
2022/07/12 05:24:29;;;;;;;3.40;1.48;;;26.40;1.00;;;;;;5151313;27;20023;-46
2022/07/12 05:26:55;;;;;;;2.17;1.50;;;26.40;1.00;;;;;;5153411;27;20097;-50
2022/07/12 05:29:20;;;;;;;2.97;1.88;;;26.40;1.00;;;;;;5150336;27;20103;-48
2022/07/12 05:31:46;;;;;;;4.70;1.83;;;26.30;1.00;;;;;;5147666;27;20023;-47
2022/07/12 05:34:12;;;;;;;4.70;1.27;;;26.30;1.00;;;;;;5144551;27;20413;-49
2022/07/12 05:36:38;;;;;;;3.90;1.80;;;26.40;1.00;;;;;;5145941;27;20102;-46
2022/07/12 05:39:04;;;;;;;4.32;1.50;;;26.40;1.00;;;;;;5144282;27;20019;-47
2022/07/12 05:41:30;;;;;;;5.30;1.95;;;26.40;1.00;;;;;;5150720;27;20383;-48
2022/07/12 05:43:55;;;;;;;3.65;1.70;;;26.40;1.00;;;;;;5147274;27;20035;-45
2022/07/12 05:46:21;;;;;;;5.18;1.90;;;26.40;1.00;;;;;;5147108;27;20034;-45
2022/07/12 05:48:46;;;;;;;4.65;1.90;;;26.50;1.00;;;;;;5144206;27;20019;-48
2022/07/12 05:53:56;;;;;;;;;;;26.40;1.00;;;;;;5153132;27;20083;-51
2022/07/12 05:56:22;;;;;;;4.50;1.80;;;26.60;1.00;;;;;;5138836;27;19930;-48
2022/07/12 05:58:47;;;;;;;6.13;1.88;;;26.60;1.00;;;;;;5152778;27;20027;-50
2022/07/12 06:01:13;;;;;;;3.00;2.22;;;26.50;1.00;;;;;;5148176;27;20421;-46
2022/07/12 06:03:39;;;;;;;3.65;2.03;;;26.50;1.00;;;;;;5144213;27;20102;-50
2022/07/12 06:06:04;;;;;;;6.78;2.15;;;26.60;1.00;;;;;;5143428;27;20111;-48
2022/07/12 06:08:30;;;;;;;7.00;2.20;;;26.50;1.00;;;;;;5151960;27;20018;-49
2022/07/12 06:10:56;;;;;;;4.53;2.03;;;26.40;1.00;;;;;;5146317;27;20109;-49
2022/07/12 06:13:22;;;;;;;3.70;1.80;;;26.50;1.00;;;;;;5147966;27;20019;-47
2022/07/12 06:15:47;;;;;;;3.42;1.80;;;26.60;1.00;;;;;;5149091;27;20046;-50
2022/07/12 06:18:13;;;;;;;5.97;1.88;;;26.70;1.00;;;;;;5153876;27;20026;-49
2022/07/12 06:20:39;;;;;;;3.88;1.90;;;26.80;1.00;;;;;;5154536;27;20027;-48
2022/07/12 06:23:04;;;;;;;1.65;1.52;;;26.80;1.00;;;;;;5155678;27;20018;-48
2022/07/12 06:25:30;;;;;;;8.60;2.50;;;26.80;1.00;;;;;;5149410;27;20159;-49
2022/07/12 06:27:56;;;;;;;6.55;3.13;;;26.80;1.00;;;;;;5148918;27;20144;-47
2022/07/12 06:30:22;;;;;;;6.97;1.77;;;26.80;1.00;;;;;;5150764;27;20102;-49
2022/07/12 06:32:48;;;;;;;3.42;1.88;;;26.70;1.00;;;;;;5154236;27;20113;-50
2022/07/12 06:35:14;;;;;;;5.38;1.80;;;26.70;1.00;;;;;;5148932;27;20034;-55
2022/07/12 06:37:41;;;;;;;4.20;1.88;;;26.70;1.00;;;;;;5152457;27;20111;-61
2022/07/12 06:40:08;;;;;;;2.60;1.80;;;26.90;1.00;;;;;;5154607;27;20022;-50
2022/07/12 06:42:35;;;;;;;3.78;1.55;;;26.90;1.00;;;;;;5154587;27;20048;-53
2022/07/12 06:45:00;;;;;;;5.35;1.65;;;26.90;1.00;;;;;;5156930;27;20087;-53
2022/07/12 06:47:26;;;;;;;7.20;1.80;;;26.90;1.00;;;;;;5152331;27;20015;-53
2022/07/12 06:49:52;;;;;;;2.65;2.00;;;26.90;1.00;;;;;;5153614;27;20058;-46
2022/07/12 06:52:18;;;;;;;2.30;1.60;;;26.90;1.00;;;;;;5154548;27;20057;-54
2022/07/12 06:54:43;;;;;;;6.57;1.95;;;26.90;1.00;;;;;;5153245;27;20106;-59
2022/07/12 06:57:09;;;;;;;4.45;1.60;;;26.90;1.00;;;;;;5153149;27;20091;-59
2022/07/12 06:59:35;;;;;;;3.28;1.65;;;27.00;1.00;;;;;;5154612;27;20059;-51
2022/07/12 07:02:01;;;;;;;2.80;1.55;;;27.00;1.00;;;;;;5151936;27;20030;-52
2022/07/12 07:04:27;;;;;;;1.83;1.70;;;27.10;1.00;;;;;;5154885;27;20106;-49
2022/07/12 07:06:52;;;;;;;7.22;2.05;;;27.10;1.00;;;;;;5155230;27;20054;-46
2022/07/12 07:09:18;;;;;;;4.05;1.90;;;27.10;1.00;;;;;;5149716;27;20033;-50
2022/07/12 07:11:44;;;;;;;3.03;1.83;;;27.10;1.00;;;;;;5152520;27;20019;-47
2022/07/12 07:14:10;;;;;;;4.03;1.80;;;27.00;1.00;;;;;;5152333;27;20153;-51
2022/07/12 07:16:35;;;;;;;4.10;1.80;;;27.10;1.00;;;;;;5151168;27;20318;-48
2022/07/12 07:19:02;;;;;;;2.95;1.73;;;27.00;1.00;;;;;;5155134;27;20027;-47
2022/07/12 07:21:28;;;;;;;5.60;1.55;;;27.10;1.00;;;;;;5144322;27;20050;-53
2022/07/12 07:23:54;;;;;;;5.78;1.80;;;27.00;1.00;;;;;;5153966;27;20336;-57
2022/07/12 07:26:21;;;;;;;3.10;1.70;;;27.10;1.00;;;;;;5152528;27;20441;-56
2022/07/12 07:31:34;;;;;;;;;;;27.20;1.00;;;;;;5153928;27;20029;-55
2022/07/12 07:34:00;;;;;;;5.47;1.95;;;27.20;1.00;;;;;;5153831;27;20337;-54
2022/07/12 07:36:26;;;;;;;7.63;1.77;;;27.30;1.00;;;;;;5152049;27;20042;-56
2022/07/12 07:38:52;;;;;;;2.40;1.73;;;27.20;1.00;;;;;;5155183;27;20364;-52
2022/07/12 07:41:17;;;;;;;3.85;1.60;;;27.30;1.00;;;;;;5154295;27;20075;-56
2022/07/12 07:43:43;;;;;;;4.05;2.20;;;27.30;1.00;;;;;;5153225;27;20466;-54
2022/07/12 07:46:09;;;;;;;3.67;2.15;;;27.40;1.00;;;;;;5154627;27;20026;-54
2022/07/12 07:48:34;;;;;;;5.00;2.90;;;27.40;1.00;;;;;;5153322;27;20109;-55
2022/07/12 07:51:00;;;;;;;4.55;2.10;;;27.50;1.00;;;;;;5153822;27;20038;-49
2022/07/12 07:53:25;;;;;;;3.75;1.95;;;27.50;1.00;;;;;;5149149;27;20168;-54
2022/07/12 07:55:51;;;;;;;3.72;2.35;;;27.50;1.00;;;;;;5147461;27;20045;-45
2022/07/12 07:58:17;;;;;;;3.35;2.80;;;27.60;1.00;;;;;;5144653;27;20403;-45
2022/07/12 08:00:42;;;;;;;6.03;2.13;;;27.60;1.00;;;;;;5152287;27;20022;-46
2022/07/12 08:03:08;;;;;;;3.92;1.60;;;27.50;1.00;;;;;;5153074;27;20483;-45
2022/07/12 08:05:34;;;;;;;5.68;2.88;;;27.60;1.00;;;;;;5142718;27;20057;-45
2022/07/12 08:07:59;;;;;;;4.43;1.90;;;27.60;1.00;;;;;;5138525;27;20023;-49
2022/07/12 08:10:25;;;;;;;2.88;1.50;;;27.60;1.00;;;;;;5143291;27;20026;-49
2022/07/12 08:12:51;;;;;;;3.17;2.05;;;27.70;1.00;;;;;;5137795;27;20058;-45
2022/07/12 08:15:17;;;;;;;7.60;2.33;;;27.80;1.00;;;;;;5142889;27;20450;-45
2022/07/12 08:17:43;;;;;;;2.20;1.60;;;27.80;1.00;;;;;;5148391;27;20018;-45
2022/07/12 08:20:09;;;;;;;2.08;1.30;;;27.70;1.00;;;;;;5154198;27;20019;-46
2022/07/12 08:22:46;;;;;;;3.40;1.75;;;27.70;1.00;;;;;;5144094;27;20495;-46
2022/07/12 08:25:15;;;;;;;4.60;1.80;;;27.80;1.00;;;;;;5147958;27;20034;-48
2022/07/12 08:27:41;;;;;;;2.10;1.50;;;27.90;1.00;;;;;;5138740;27;20436;-46
2022/07/12 08:30:07;;;;;;;4.82;2.00;;;28.00;1.00;;;;;;5136252;27;20027;-45
2022/07/12 08:32:33;;;;;;;2.47;1.60;;;28.10;1.00;;;;;;5146847;27;20687;-46
2022/07/12 08:34:58;;;;;;;5.20;2.85;;;28.10;1.00;;;;;;5138014;27;20077;-46
2022/07/12 08:37:24;;;;;;;3.67;2.40;;;28.10;1.00;;;;;;5148561;27;20035;-50
2022/07/12 08:39:50;;;;;;;3.78;1.67;;;28.10;1.00;;;;;;5137841;27;20034;-46
2022/07/12 08:42:18;;;;;;;3.55;1.70;;;28.10;1.00;;;;;;5133692;27;20035;-47
2022/07/12 08:44:44;;;;;;;5.10;1.70;;;28.20;1.00;;;;;;5134354;27;20057;-46
2022/07/12 08:47:10;;;;;;;2.35;1.98;;;28.20;1.00;;;;;;5139669;27;20042;-46
2022/07/12 08:49:37;;;;;;;4.20;2.28;;;28.30;1.00;;;;;;5146725;27;20027;-45
2022/07/12 08:52:26;;;;;;;2.58;2.10;;;28.30;1.00;;;;;;5148412;27;20034;-47
2022/07/12 08:54:52;;;;;;;5.03;2.55;;;28.30;1.00;;;;;;5139200;27;20015;-47
2022/07/12 08:57:30;;;;;;;5.15;2.00;;;28.30;1.00;;;;;;5149970;27;20026;-44
2022/07/12 09:00:00;;;;;;;3.88;1.55;;;28.60;1.00;;;;;;5141801;27;20498;-45
2022/07/12 09:02:29;;;;;;;2.65;2.40;;;29.30;1.00;;;;;;5142316;27;20030;-62
2022/07/12 09:05:07;;;;;;;6.43;2.13;;;29.10;1.00;;;;;;5145430;27;20053;-48
2022/07/12 09:07:35;;;;;;;3.15;2.17;;;29.30;1.00;;;;;;5143632;27;20027;-48
2022/07/12 09:10:06;;;;;;;3.55;2.00;;;29.50;1.00;;;;;;5136726;27;20026;-49
2022/07/12 09:12:34;;;;;;;3.05;2.17;;;29.40;1.00;;;;;;5141985;27;20027;-47
2022/07/12 09:15:21;;;;;;;3.78;2.13;;;29.20;1.00;;;;;;5139315;27;20046;-46
2022/07/12 09:17:57;;;;;;;4.45;2.40;;;29.80;1.00;;;;;;5137878;27;20109;-45
2022/07/12 09:20:27;;;;;;;3.03;1.70;;;29.20;1.00;;;;;;5145015;27;20027;-49
2022/07/12 09:22:55;;;;;;;5.57;2.40;;;29.60;1.00;;;;;;5138994;27;20023;-52
2022/07/12 09:25:21;;;;;;;4.20;2.30;;;29.80;1.00;;;;;;5140266;27;20023;-47
2022/07/12 09:27:52;;;;;;;5.93;2.00;;;29.70;1.00;;;;;;5149168;27;20031;-55
2022/07/12 09:30:18;;;;;;;4.50;2.20;;;29.80;1.00;;;;;;5152212;27;20026;-47
2022/07/12 09:38:19;;;;;;;;;;;30.40;1.00;;;;;;5147866;27;20171;-47
2022/07/12 09:40:45;;;;;;;4.35;1.98;;;30.40;1.00;;;;;;5145889;27;20002;-59
2022/07/12 09:43:12;;;;;;;3.97;1.77;;;30.30;1.00;;;;;;5138116;27;20499;-45
2022/07/12 09:45:40;;;;;;;2.70;2.20;;;30.70;1.00;;;;;;5142301;27;20031;-49
2022/07/12 09:48:08;;;;;;;2.40;2.10;;;30.40;1.00;;;;;;5146566;27;20491;-47
2022/07/12 09:50:35;;;;;;;4.25;2.38;;;30.80;1.00;;;;;;5148494;27;20015;-45
2022/07/12 09:53:03;;;;;;;3.90;2.00;;;30.90;1.00;;;;;;5148615;27;20038;-44
2022/07/12 09:55:32;;;;;;;3.10;1.92;;;31.10;1.00;;;;;;5151738;27;20031;-43
2022/07/12 09:58:01;;;;;;;2.97;1.90;;;31.40;1.00;;;;;;5148095;27;20034;-48
2022/07/12 10:00:28;;;;;;;4.38;2.10;;;30.70;1.00;;;;;;5152941;27;20019;-45
2022/07/12 10:02:57;;;;;;;5.13;2.20;;;30.40;1.00;;;;;;5149939;27;20163;-51
2022/07/12 10:05:24;;;;;;;4.15;2.42;;;30.50;1.00;;;;;;5150812;27;20019;-43
2022/07/12 10:07:51;;;;;;;3.50;2.30;;;30.70;1.00;;;;;;5150216;27;20051;-44
2022/07/12 10:10:17;;;;;;;3.20;1.63;;;30.50;1.00;;;;;;5147438;27;20053;-43
2022/07/12 10:12:43;;;;;;;6.38;1.92;;;30.20;1.00;;;;;;5139069;27;20027;-46
2022/07/12 10:15:22;;;;;;;6.28;2.03;;;30.50;1.00;;;;;;5150668;27;20031;-44
2022/07/12 10:17:56;;;;;;;4.45;1.88;;;30.80;1.00;;;;;;5148221;27;20022;-45
2022/07/12 10:20:28;;;;;;;3.88;2.20;;;30.70;1.00;;;;;;5145219;27;20027;-48
2022/07/12 10:23:12;;;;;;;2.45;2.25;;;30.50;1.00;;;;;;5144394;27;20392;-48
2022/07/12 10:25:38;;;;;;;2.15;2.00;;;30.50;1.00;;;;;;5144453;27;20084;-48
2022/07/12 10:28:04;;;;;;;5.53;2.25;;;30.50;1.00;;;;;;5145901;27;20412;-46
2022/07/12 10:30:30;;;;;;;2.75;2.50;;;30.50;1.00;;;;;;5151183;27;20365;-43
2022/07/12 10:32:59;;;;;;;4.28;2.20;;;30.80;1.00;;;;;;5144513;27;20050;-46
2022/07/12 10:35:27;;;;;;;5.78;3.53;;;31.00;1.00;;;;;;5143289;27;20039;-43
2022/07/12 10:38:11;;;;;;;2.40;2.20;;;31.00;1.00;;;;;;5145146;27;20038;-48
2022/07/12 10:40:38;;;;;;;4.28;2.80;;;31.30;1.00;;;;;;5148527;27;20114;-41
2022/07/12 10:43:03;;;;;;;3.47;2.30;;;31.50;1.00;;;;;;5143256;27;20034;-42
2022/07/12 10:45:40;;;;;;;1.75;1.65;;;31.60;1.00;;;;;;5138505;27;20031;-49
2022/07/12 10:48:20;;;;;;;3.20;2.00;;;31.60;1.00;;;;;;5142035;27;20023;-42
2022/07/12 10:50:45;;;;;;;4.43;2.80;;;31.40;1.00;;;;;;5140103;27;20826;-42
2022/07/12 10:53:35;;;;;;;2.55;1.80;;;31.80;1.00;;;;;;5153133;27;20019;-43
2022/07/12 10:56:14;;;;;;;4.70;1.92;;;31.90;1.00;;;;;;5152970;27;20504;-49
2022/07/12 10:58:43;;;;;;;2.58;1.98;;;31.70;1.00;;;;;;5152287;27;20046;-43
2022/07/12 11:01:10;;;;;;;5.50;2.00;;;32.00;1.00;;;;;;5145769;27;20042;-44
2022/07/12 11:03:47;;;;;;;2.63;2.33;;;32.30;1.00;;;;;;5153257;27;20142;-43
2022/07/12 11:06:15;;;;;;;4.75;2.15;;;32.50;1.00;;;;;;5145431;27;20475;-44
2022/07/12 11:08:51;;;;;;;2.40;2.20;;;32.20;1.00;;;;;;5147510;27;20110;-44
2022/07/12 11:11:17;;;;;;;3.92;2.20;;;33.10;1.00;;;;;;5143843;27;20034;-47
2022/07/12 11:13:43;;;;;;;4.18;3.40;;;32.80;1.00;;;;;;5152161;27;20038;-43
2022/07/12 11:16:09;;;;;;;4.78;2.30;;;32.50;1.00;;;;;;5140918;27;20114;-51
2022/07/12 11:18:37;;;;;;;2.50;2.17;;;32.30;1.00;;;;;;5141651;27;20035;-46
2022/07/12 11:21:04;;;;;;;2.85;1.83;;;31.90;1.00;;;;;;5148100;27;20030;-45
2022/07/12 11:23:31;;;;;;;4.03;1.95;;;31.90;1.00;;;;;;5150032;27;20027;-45
2022/07/12 11:25:58;;;;;;;3.80;1.90;;;32.40;1.00;;;;;;5154777;27;20023;-46
2022/07/12 11:28:24;;;;;;;2.63;2.28;;;32.30;1.00;;;;;;5149985;27;20043;-47
2022/07/12 11:30:51;;;;;;;4.45;2.40;;;32.80;1.00;;;;;;5150456;27;20105;-48
2022/07/12 11:33:17;;;;;;;4.18;2.55;;;33.40;1.00;;;;;;5150583;27;20483;-47
2022/07/12 11:35:46;;;;;;;4.55;2.80;;;34.80;1.00;;;;;;5144431;27;20038;-49
2022/07/12 11:38:12;;;;;;;2.60;2.40;;;35.70;1.00;;;;;;5142078;27;20034;-48
2022/07/12 11:40:38;;;;;;;3.97;2.83;;;36.00;1.00;;;;;;5142904;27;20113;-47
2022/07/12 11:43:04;;;;;;;4.45;3.00;;;34.90;1.00;;;;;;5136963;27;20043;-45
2022/07/12 11:45:32;;;;;;;9.88;8.95;;;34.70;1.00;;;;;;5136324;27;20380;-45
2022/07/12 11:47:59;;;;;;;3.75;2.83;;;34.90;1.00;;;;;;5148148;27;20392;-44
2022/07/12 11:50:25;;;;;;;7.63;6.57;;;36.80;1.00;;;;;;5152155;27;20018;-48
2022/07/12 11:52:50;;;;;;;4.10;3.15;;;37.60;1.00;;;;;;5153473;27;20121;-44
2022/07/12 11:55:16;;;;;;;4.63;3.40;;;38.20;1.00;;;;;;5152146;27;20052;-43
2022/07/12 11:57:42;;;;;;;6.57;3.03;;;38.40;1.00;;;;;;5153209;27;20101;-44
2022/07/12 12:00:21;;;;;;;4.47;2.65;;;39.10;1.00;;;;;;5149251;27;20122;-44
2022/07/12 12:02:51;;;;;;;5.22;2.90;;;39.20;1.00;;;;;;5137653;27;20551;-44
2022/07/12 12:05:18;;;;;;;4.55;2.78;;;39.30;1.00;;;;;;5149837;27;20456;-44
2022/07/12 12:07:44;;;;;;;6.45;3.13;;;38.60;1.00;;;;;;5148595;27;20023;-45
2022/07/12 12:10:17;;;;;;;3.85;2.70;;;38.30;1.00;;;;;;5149720;27;20031;-44
2022/07/12 12:12:50;;;;;;;6.43;3.00;;;39.20;1.00;;;;;;5135742;27;20011;-44
2022/07/12 12:15:17;;;;;;;4.05;3.17;;;39.50;1.00;;;;;;5137543;27;20402;-45
2022/07/12 12:17:56;;;;;;;4.85;3.20;;;39.60;1.00;;;;;;5144778;27;20472;-45
2022/07/12 12:20:24;;;;;;;4.47;2.90;;;38.60;1.00;;;;;;5142203;27;20035;-47
2022/07/12 12:22:55;;;;;;;3.88;3.10;;;37.60;1.00;;;;;;5152280;27;20027;-44
2022/07/12 12:25:22;;;;;;;3.67;3.00;;;36.10;1.00;;;;;;5138303;27;20058;-45
2022/07/12 12:27:50;;;;;;;5.65;2.90;;;35.10;1.00;;;;;;5150340;27;20019;-45
2022/07/12 12:30:17;;;;;;;3.72;3.00;;;36.30;1.00;;;;;;5142518;27;20038;-45
2022/07/12 12:32:48;;;;;;;3.28;3.00;;;35.30;1.00;;;;;;5150040;27;20015;-44
2022/07/12 12:35:17;;;;;;;3.60;3.00;;;34.70;1.00;;;;;;5147679;27;20079;-48
2022/07/12 12:38:13;;;;;;;4.20;2.97;;;34.60;1.00;;;;;;5146928;27;20030;-45
2022/07/12 12:40:39;;;;;;;3.15;2.40;;;34.40;1.00;;;;;;5145837;27;20395;-45
2022/07/12 12:43:07;;;;;;;4.05;2.80;;;34.00;1.00;;;;;;5139164;27;20030;-45
2022/07/12 12:45:33;;;;;;;4.03;3.42;;;33.80;1.00;;;;;;5149846;27;20039;-45
2022/07/12 12:48:02;;;;;;;5.05;3.28;;;33.60;1.00;;;;;;5146405;27;20031;-46
2022/07/12 12:50:37;;;;;;;8.27;3.33;;;33.40;1.00;;;;;;5139618;27;20126;-50
2022/07/12 12:53:13;;;;;;;4.53;3.38;;;33.50;1.00;;;;;;5143412;27;20037;-49
2022/07/12 12:55:39;;;;;;;4.43;3.00;;;33.80;1.00;;;;;;5149763;27;20508;-48
2022/07/12 12:58:05;;;;;;;2.70;2.55;;;33.40;1.00;;;;;;5145921;27;20023;-49
2022/07/12 13:00:31;;;;;;;7.43;3.10;;;33.20;1.00;;;;;;5148721;27;20043;-50
2022/07/12 13:02:59;;;;;;;3.63;2.60;;;33.50;1.00;;;;;;5149985;27;20494;-47
2022/07/12 13:05:26;;;;;;;4.32;3.10;;;33.70;1.00;;;;;;5148687;27;20042;-51
2022/07/12 13:07:52;;;;;;;4.35;2.92;;;33.80;1.00;;;;;;5152798;27;20463;-51
2022/07/12 13:10:17;;;;;;;3.70;2.90;;;33.70;1.00;;;;;;5149965;27;20027;-46
2022/07/12 13:12:44;;;;;;;5.68;3.13;;;33.70;1.00;;;;;;5144034;27;20046;-45
2022/07/12 13:15:10;;;;;;;3.72;3.05;;;33.30;1.00;;;;;;5145251;27;20011;-46
2022/07/12 13:17:36;;;;;;;3.67;2.75;;;33.30;1.00;;;;;;5151995;27;20125;-47
2022/07/12 13:20:02;;;;;;;5.18;2.70;;;33.20;1.00;;;;;;5152781;27;20083;-45
2022/07/12 13:22:28;;;;;;;6.50;3.20;;;33.30;1.00;;;;;;5152774;27;20026;-47
2022/07/12 13:24:54;;;;;;;4.45;2.92;;;33.20;1.00;;;;;;5152617;27;20019;-50
2022/07/12 13:27:20;;;;;;;6.07;4.05;;;33.20;1.00;;;;;;5152370;27;20486;-46
2022/07/12 13:29:46;;;;;;;4.15;2.85;;;33.20;1.00;;;;;;5152365;27;20015;-47
2022/07/12 13:32:12;;;;;;;4.43;2.85;;;33.60;1.00;;;;;;5151756;27;20062;-43
2022/07/12 13:34:37;;;;;;;3.10;2.80;;;33.60;1.00;;;;;;5149935;27;20566;-45
2022/07/12 13:37:04;;;;;;;4.25;3.03;;;33.40;1.00;;;;;;5144232;27;20047;-47
2022/07/12 13:42:14;;;;;;;3.22;2.92;;;33.30;1.00;;;;;;5139645;27;20074;-49
2022/07/12 13:44:41;;;;;;;4.57;3.13;;;33.10;1.00;;;;;;5137599;27;20027;-46
2022/07/12 13:47:07;;;;;;;7.00;2.90;;;33.40;1.00;;;;;;5152680;27;20332;-54
2022/07/12 13:49:32;;;;;;;5.43;2.90;;;33.30;1.00;;;;;;5138497;27;20042;-51
2022/07/12 13:51:58;;;;;;;3.42;3.00;;;33.10;1.00;;;;;;5131908;27;20035;-52
2022/07/12 13:54:24;;;;;;;6.25;4.15;;;33.50;1.00;;;;;;5139163;27;20106;-48
2022/07/12 13:56:49;;;;;;;3.70;3.40;;;33.90;1.00;;;;;;5136639;27;20070;-51